createdAt,value
2018-04-02T00:01:13.210Z,19.50
2018-04-02T00:06:15.690Z,16.97
2018-04-02T00:11:18.197Z,20.37
2018-04-02T00:16:20.727Z,19.57
2018-04-02T00:21:23.143Z,19.33
2018-04-02T00:26:25.630Z,21.50
2018-04-02T00:31:28.113Z,20.90
2018-04-02T00:36:30.596Z,16.90
2018-04-02T00:41:33.141Z,18.77
2018-04-02T00:46:35.750Z,17.57
2018-04-02T00:51:38.222Z,18.77
2018-04-02T00:56:40.693Z,18.63
2018-04-02T01:01:43.179Z,22.10
2018-04-02T01:06:45.665Z,20.20
2018-04-02T01:11:48.130Z,24.73
2018-04-02T01:16:50.599Z,22.40
2018-04-02T01:21:53.083Z,22.53
2018-04-02T01:26:55.603Z,21.63
2018-04-02T01:31:58.051Z,21.97
2018-04-02T01:37:00.596Z,22.80
2018-04-02T01:42:03.196Z,27.63
2018-04-02T01:47:05.697Z,26.23
2018-04-02T01:52:08.187Z,30.13
2018-04-02T01:57:10.963Z,26.27
2018-04-02T02:02:13.440Z,28.07
2018-04-02T02:07:15.904Z,37.30
2018-04-02T02:12:18.404Z,28.60
2018-04-02T02:17:20.888Z,26.70
2018-04-02T02:22:23.360Z,33.37
2018-04-02T02:27:25.835Z,30.00
2018-04-02T02:32:28.318Z,28.47
2018-04-02T02:37:32.976Z,30.13
2018-04-02T02:42:35.979Z,34.07
2018-04-02T02:47:38.468Z,29.47
2018-04-02T02:52:41.050Z,32.90
2018-04-02T02:57:43.554Z,29.10
2018-04-02T03:02:46.026Z,36.60
2018-04-02T03:07:48.508Z,35.07
2018-04-02T03:12:51.009Z,31.43
2018-04-02T03:17:53.468Z,31.57
2018-04-02T03:22:56.026Z,28.97
2018-04-02T03:27:58.494Z,30.03
2018-04-02T03:33:01.064Z,31.10
2018-04-02T03:38:03.686Z,30.10
2018-04-02T03:43:06.318Z,35.13
2018-04-02T03:48:08.854Z,33.03
2018-04-02T03:53:11.341Z,32.77
2018-04-02T03:58:13.822Z,38.13
2018-04-02T04:03:16.308Z,33.73
2018-04-02T04:08:18.765Z,36.83
2018-04-02T04:13:21.305Z,35.43
2018-04-02T04:18:23.785Z,37.60
2018-04-02T04:23:26.264Z,36.13
2018-04-02T04:28:28.746Z,33.90
2018-04-02T04:33:32.347Z,37.70
2018-04-02T04:38:34.959Z,39.40
2018-04-02T04:43:37.499Z,30.40
2018-04-02T04:48:40.034Z,36.97
2018-04-02T04:53:42.514Z,33.70
2018-04-02T04:58:45.005Z,31.67
2018-04-02T05:03:47.491Z,34.70
2018-04-02T05:08:49.956Z,32.00
2018-04-02T05:13:52.443Z,30.70
2018-04-02T05:18:55.098Z,35.00
2018-04-02T05:23:57.582Z,33.73
2018-04-02T05:29:00.102Z,26.10
2018-04-02T05:34:02.821Z,30.67
2018-04-02T05:39:06.063Z,28.43
2018-04-02T05:44:08.557Z,22.63
2018-04-02T05:49:11.040Z,24.23
2018-04-02T05:54:13.497Z,21.20
2018-04-02T05:59:15.974Z,16.03
2018-04-02T06:04:18.442Z,21.20
2018-04-02T06:09:20.907Z,18.80
2018-04-02T06:14:23.384Z,22.50
2018-04-02T06:19:25.853Z,18.63
2018-04-02T06:24:28.348Z,21.67
2018-04-02T06:29:30.885Z,20.50
2018-04-02T06:34:33.743Z,20.03
2018-04-02T06:39:36.257Z,16.70
2018-04-02T06:44:38.727Z,17.57
2018-04-02T06:49:41.176Z,15.33
2018-04-02T06:54:43.654Z,19.70
2018-04-02T06:59:46.123Z,19.17
2018-04-02T07:04:48.616Z,20.03
2018-04-02T07:09:51.094Z,18.43
2018-04-02T07:14:53.563Z,17.60
2018-04-02T07:19:56.185Z,16.90
2018-04-02T07:24:58.667Z,16.60
2018-04-02T07:30:01.186Z,13.60
2018-04-02T07:35:03.676Z,16.57
2018-04-02T07:40:06.264Z,15.63
2018-04-02T07:45:08.740Z,15.80
2018-04-02T07:50:11.230Z,14.03
2018-04-02T07:55:13.702Z,14.23
2018-04-02T08:00:16.196Z,16.87
2018-04-02T08:05:18.697Z,14.60
2018-04-02T08:10:21.172Z,13.50
2018-04-02T08:15:24.014Z,13.13
2018-04-02T08:20:27.644Z,15.07
2018-04-02T08:25:30.117Z,14.97
2018-04-02T08:30:32.733Z,15.50
2018-04-02T08:35:35.220Z,14.17
2018-04-02T08:40:37.715Z,12.60
2018-04-02T08:45:40.177Z,12.23
2018-04-02T08:50:42.616Z,12.83
2018-04-02T08:55:45.112Z,9.40
2018-04-02T09:00:47.613Z,10.93
2018-04-02T09:05:50.069Z,9.03
2018-04-02T09:10:52.551Z,10.50
2018-04-02T09:15:55.017Z,11.10
2018-04-02T09:20:57.484Z,10.93
2018-04-02T09:25:59.985Z,11.43
2018-04-02T09:31:02.488Z,8.80
2018-04-02T09:36:05.010Z,9.57
2018-04-02T09:41:07.482Z,7.90
2018-04-02T09:46:10.629Z,7.87
2018-04-02T09:51:13.115Z,5.50
2018-04-02T09:56:15.591Z,5.07
2018-04-02T10:01:18.086Z,5.90
2018-04-02T10:06:20.571Z,6.40
2018-04-02T10:11:23.467Z,6.87
2018-04-02T10:16:25.971Z,5.83
2018-04-02T10:21:28.447Z,6.23
2018-04-02T10:26:31.162Z,4.90
2018-04-02T10:31:33.709Z,4.47
2018-04-02T10:36:36.222Z,5.07
2018-04-02T10:41:38.701Z,4.50
2018-04-02T10:46:41.317Z,5.30
2018-04-02T10:51:43.798Z,5.50
2018-04-02T10:56:46.339Z,6.23
2018-04-02T11:01:48.812Z,4.10
2018-04-02T11:06:51.292Z,7.80
2018-04-02T11:11:53.762Z,6.00
2018-04-02T11:16:56.255Z,7.27
2018-04-02T11:21:58.756Z,7.83
2018-04-02T11:27:01.257Z,7.00
2018-04-02T11:32:03.789Z,5.90
2018-04-02T11:37:06.444Z,10.63
2018-04-02T11:42:08.940Z,8.47
2018-04-02T11:47:11.440Z,8.60
2018-04-02T11:52:13.933Z,10.83
2018-04-02T11:57:17.463Z,10.83
2018-04-02T12:02:20.036Z,9.73
2018-04-02T12:07:22.516Z,9.83
2018-04-02T12:12:25.024Z,9.37
2018-04-02T12:17:27.645Z,10.53
2018-04-02T12:22:30.125Z,9.27
2018-04-02T12:27:32.694Z,10.60
2018-04-02T12:32:35.191Z,12.23
2018-04-02T12:37:37.729Z,10.67
2018-04-02T12:42:40.243Z,13.93
2018-04-02T12:47:42.709Z,14.70
2018-04-02T12:52:45.180Z,14.60
2018-04-02T12:57:47.656Z,13.13
2018-04-02T13:02:50.130Z,12.90
2018-04-02T13:07:52.610Z,15.90
2018-04-02T13:12:55.075Z,16.00
2018-04-02T13:17:57.607Z,16.40
2018-04-02T13:23:00.307Z,16.50
2018-04-02T13:28:02.814Z,15.93
2018-04-02T13:33:05.475Z,14.80
2018-04-02T13:38:08.095Z,17.70
2018-04-02T13:43:10.563Z,15.10
2018-04-02T13:48:13.051Z,17.30
2018-04-02T13:53:15.527Z,17.47
2018-04-02T13:58:18.040Z,17.70
2018-04-02T14:03:20.509Z,19.13
2018-04-02T14:08:23.045Z,18.00
2018-04-02T14:13:25.546Z,17.87
2018-04-02T14:18:28.056Z,16.53
2018-04-02T14:23:30.707Z,20.93
2018-04-02T14:28:33.241Z,19.47
2018-04-02T14:33:35.820Z,23.13
2018-04-02T14:38:38.320Z,20.83
2018-04-02T14:43:41.012Z,17.30
2018-04-02T14:48:43.508Z,23.13
2018-04-02T14:53:45.970Z,19.97
2018-04-02T14:58:48.539Z,20.73
2018-04-02T15:03:51.188Z,20.40
2018-04-02T15:08:53.672Z,22.87
2018-04-02T15:13:56.169Z,19.37
2018-04-02T15:18:58.660Z,22.87
2018-04-02T15:24:02.892Z,20.93
2018-04-02T15:29:05.441Z,22.13
2018-04-02T15:34:08.143Z,22.23
2018-04-02T15:39:10.694Z,25.07
2018-04-02T15:44:13.184Z,24.00
2018-04-02T15:49:15.668Z,24.10
2018-04-02T15:54:18.165Z,23.13
2018-04-02T15:59:20.645Z,24.27
2018-04-02T16:04:23.122Z,25.23
2018-04-02T16:09:25.681Z,22.77
2018-04-02T16:14:28.210Z,22.37
2018-04-02T16:19:31.007Z,26.27
2018-04-02T16:24:33.630Z,22.43
2018-04-02T16:29:36.137Z,26.47
2018-04-02T16:34:38.939Z,24.47
2018-04-02T16:39:41.422Z,25.63
2018-04-02T16:44:43.922Z,24.07
2018-04-02T16:49:46.387Z,27.57
2018-04-02T16:54:48.880Z,24.60
2018-04-02T16:59:51.391Z,24.70
2018-04-02T17:04:53.870Z,21.93
2018-04-02T17:09:56.642Z,23.93
2018-04-02T17:15:00.950Z,21.20
2018-04-02T17:20:03.546Z,23.17
2018-04-02T17:25:06.014Z,21.77
2018-04-02T17:30:08.525Z,19.37
2018-04-02T17:35:11.046Z,21.93
2018-04-02T17:40:13.597Z,18.83
2018-04-02T17:45:16.092Z,22.87
2018-04-02T17:50:18.549Z,24.07
2018-04-02T17:55:21.059Z,20.50
2018-04-02T18:00:23.522Z,23.07
2018-04-02T18:05:26.022Z,22.13
2018-04-02T18:10:28.504Z,21.47
2018-04-02T18:15:31.012Z,21.80
2018-04-02T18:20:34.661Z,21.63
2018-04-02T18:25:37.159Z,22.60
2018-04-02T18:30:39.718Z,21.73
2018-04-02T18:35:42.189Z,24.50
2018-04-02T18:40:44.721Z,24.53
2018-04-02T18:45:47.248Z,19.67
2018-04-02T18:50:49.760Z,21.20
2018-04-02T18:55:52.415Z,21.97
2018-04-02T19:00:54.902Z,21.13
2018-04-02T19:05:59.567Z,21.63
2018-04-02T19:11:02.128Z,21.40
2018-04-02T19:16:04.919Z,24.83
2018-04-02T19:21:07.453Z,22.77
2018-04-02T19:26:10.034Z,21.60
2018-04-02T19:31:12.554Z,24.10
2018-04-02T19:36:15.033Z,25.00
2018-04-02T19:41:17.504Z,21.63
2018-04-02T19:46:21.353Z,24.47
2018-04-02T19:51:23.943Z,23.17
2018-04-02T19:56:26.432Z,24.13
2018-04-02T20:01:29.368Z,23.87
2018-04-02T20:06:32.586Z,24.53
2018-04-02T20:11:35.252Z,24.73
2018-04-02T20:16:37.830Z,22.07
2018-04-02T20:21:40.609Z,24.43
2018-04-02T20:26:45.819Z,24.80
2018-04-02T20:31:50.536Z,24.00
2018-04-02T20:36:56.796Z,26.40
2018-04-02T20:42:02.572Z,22.93
2018-04-02T20:47:05.453Z,26.93
2018-04-02T20:52:08.037Z,25.30
2018-04-02T20:57:10.787Z,25.97
2018-04-02T21:02:13.303Z,24.77
2018-04-02T21:07:16.249Z,25.47
2018-04-02T21:12:21.348Z,24.73
2018-04-02T21:17:25.059Z,23.00
2018-04-02T21:22:29.496Z,22.73
2018-04-02T21:27:31.995Z,23.40
2018-04-02T21:32:35.072Z,23.67
2018-04-02T21:37:37.764Z,23.33
2018-04-02T21:42:40.356Z,25.60
2018-04-02T21:47:42.940Z,25.17
2018-04-02T21:52:45.406Z,24.63
2018-04-02T21:57:47.908Z,22.70
2018-04-02T22:02:50.395Z,24.07
2018-04-02T22:07:52.856Z,24.00
2018-04-02T22:12:55.311Z,21.80
2018-04-02T22:17:59.356Z,22.93
2018-04-02T22:23:01.856Z,21.47
2018-04-02T22:28:04.371Z,21.40
2018-04-02T22:33:06.906Z,21.97
2018-04-02T22:38:09.516Z,20.70
2018-04-02T22:43:13.296Z,23.27
2018-04-02T22:48:16.073Z,20.30
2018-04-02T22:53:18.598Z,19.60
2018-04-02T22:58:21.100Z,23.53
2018-04-02T23:03:23.602Z,22.00
2018-04-02T23:08:26.072Z,20.37
2018-04-02T23:13:28.554Z,24.07
2018-04-02T23:18:31.073Z,22.67
2018-04-02T23:23:33.612Z,21.43
2018-04-02T23:28:36.146Z,23.00
2018-04-02T23:33:38.646Z,20.50
2018-04-02T23:38:41.101Z,18.80
2018-04-02T23:43:43.719Z,22.27
2018-04-02T23:48:46.213Z,21.77
2018-04-02T23:53:48.728Z,22.53
2018-04-02T23:58:51.198Z,20.80
